Latest Coastal Weather Observations for Weipa

IDQ60701

Issued at 10:05 am EST Tuesday 2 September 2014 (issued every 10 minutes, with the page automatically refreshed every 10 minutes)

About coastal observations | Map of coastal stations | Coastal observations for QLD | Marine services | Other Formats
Station Details ID: 027045 Name: WEIPA AERO Lat: -12.68 Lon: 141.92 Height: 17.96 m
Data from the previous 72 hours. | See also: Recent months at Weipa
Date/Time
EST
Temp

°C
Wind Pressure Rain
since 9am
mm
Weather Cloud Vis
km
Sea
Height
m
Swell
Dir
 
Speed
knots
Gust
knots
hPa Trend Height
m
Period
s
Dir
02/10:00am 26.2 E 10 14 1015.7 - 0.0 - - 10 - - - -
02/09:30am 25.3 ESE 10 14 1015.7 - 0.0 - - 10 - - - -
02/09:00am 24.5 ESE 11 14 1015.7 R 0.0 Haze Partly cloudy 20 - - - -
02/08:30am 22.5 SE 6 10 1015.8 - 0.0 - - 10 - - - -
02/08:00am 21.2 SSE 5 9 1015.6 - 0.0 - - 10 - - - -
02/07:30am 19.9 S 4 6 1015.4 - 0.0 - - 10 - - - -
02/07:00am 18.8 S 3 4 1015.0 - 0.0 - - 10 - - - -
02/06:30am 18.8 SSE 2 3 1014.4 - 0.0 - - 10 - - - -
02/06:00am 18.9 SSE 3 4 1013.9 F 0.0 Mist Mostly cloudy 10 - - - -
02/05:30am 18.8 SSE 3 4 1013.9 - 0.0 - - 10 - - - -
02/05:00am 18.8 S 3 4 1013.8 - 0.0 - - 10 - - - -
02/04:30am 18.9 SSE 3 4 1013.8 - 0.0 - - 10 - - - -
02/04:00am 18.8 SSE 1 2 1013.7 - 0.0 - - 10 - - - -
02/03:30am 19.0 CALM 0 0 1013.8 - 0.0 - - 10 - - - -
02/03:00am 19.3 SE 1 2 1013.8 - 0.0 - - 10 - - - -
02/02:30am 19.7 ESE 2 2 1014.0 - 0.0 - - 10 - - - -
02/02:00am 19.9 CALM 0 0 1014.1 - 0.0 - - 10 - - - -
02/01:30am 20.6 SSE 2 3 1014.2 - 0.0 - - 10 - - - -
02/01:00am 20.9 S 1 2 1014.3 - 0.0 - - 10 - - - -
02/12:30am 21.7 ESE 1 2 1014.7 - 0.0 - - 10 - - - -
02/12:00am 22.5 E 3 5 1014.8 - 0.0 - - 10 - - - -
 
Date/Time
EST
Temp

°C
Wind Pressure Rain
since 9am
mm
Weather Cloud Vis
km
Sea
Height
m
Swell
Dir
 
Speed
knots
Gust
knots
hPa Trend Height
m
Period
s
Dir
01/11:30pm 22.7 E 3 6 1014.9 - 0.0 - - 10 - - - -
01/11:00pm 23.3 E 4 6 1015.0 - 0.0 - - 10 - - - -
01/10:30pm 23.9 E 5 10 1014.9 - 0.0 - - 10 - - - -
01/10:00pm 24.6 E 5 8 1014.9 - 0.0 - - 10 - - - -
01/09:30pm 25.3 E 10 16 1014.6 - 0.0 - - 10 - - - -
01/09:00pm 26.1 E 6 8 1014.4 - 0.0 - Cloudy 10 - - - -
01/08:30pm 26.8 E 8 13 1013.9 - 0.0 - - 10 - - - -
01/08:00pm 27.3 ENE 7 11 1013.3 - 0.0 - - 10 - - - -
01/07:30pm 25.9 NNE 2 9 1012.9 - 0.0 - - 10 - - - -
01/07:00pm 26.0 W 2 3 1012.1 - 0.0 - - 10 - - - -
01/06:30pm 26.9 W 2 4 1011.7 - 0.0 - - 10 - - - -
01/06:00pm 27.9 W 5 7 1011.1 - 0.0 - - 10 - - - -
01/05:30pm 29.0 WSW 4 7 1010.9 - 0.0 - Partly cloudy 10 - - - -
01/05:00pm 29.5 W 5 10 1010.6 - 0.0 - Partly cloudy 10 - - - -
01/04:30pm 31.1 W 6 12 1010.3 - 0.0 - Partly cloudy 10 - - - -
01/04:00pm 31.5 W 7 11 1010.2 - 0.0 - Partly cloudy 10 - - - -
01/03:30pm 31.1 WNW 8 13 1010.3 - 0.0 - Partly cloudy 10 - - - -
01/03:00pm 32.8 SE 6 11 1010.3 F 0.0 Fine Partly cloudy 35 - - - -
01/02:30pm 31.2 SE 5 9 1010.9 - 0.0 - Partly cloudy 10 - - - -
01/02:00pm 32.4 SSE 5 9 1011.5 - 0.0 - Partly cloudy 10 - - - -
01/01:30pm 32.3 SSE 6 12 1011.9 - 0.0 - - 10 - - - -
01/01:00pm 31.1 SSE 7 14 1012.3 - 0.0 - Partly cloudy 10 - - - -
01/12:30pm 30.3 SSE 7 12 1012.9 - 0.0 - Partly cloudy 10 - - - -
01/12:00pm 30.8 ESE 7 14 1013.4 F 0.0 Fine Partly cloudy 35 - - - -
01/11:30am 29.9 ESE 7 13 1014.0 - 0.0 - - 10 - - - -
01/11:00am 29.2 E 10 13 1014.3 - 0.0 - Mostly clear 10 - - - -
01/10:30am 28.5 E 10 12 1014.7 - 0.0 - - 10 - - - -
01/10:00am 27.4 ESE 10 13 1014.8 - 0.0 - - 10 - - - -
01/09:30am 25.6 ESE 11 17 1014.9 - 0.0 - - 10 - - - -
01/09:00am 24.9 ESE 10 14 1014.8 F 0.0 Haze Partly cloudy 20 - - - -
01/08:30am 23.4 ESE 8 11 1014.8 - 0.0 - - 10 - - - -
01/08:00am 21.8 SE 4 8 1014.5 - 0.0 - - 10 - - - -
01/07:30am 20.3 SSE 3 5 1014.4 - 0.0 - - 10 - - - -
01/07:00am 19.2 SSE 2 4 1014.3 - 0.0 - - 10 - - - -
01/06:30am 18.8 SE 1 3 1014.0 - 0.0 - - 10 - - - -
01/06:00am 19.0 SSE 1 2 1013.7 F 0.0 Fine Mostly clear 20 - - - -
01/05:30am 19.4 S 3 4 1013.7 - 0.0 - Cloudy 10 - - - -
01/05:00am 19.1 S 2 3 1013.5 - 0.0 - Cloudy 10 - - - -
01/04:30am 18.4 S 2 3 1013.3 - 0.0 - - 10 - - - -
01/04:00am 18.5 CALM 0 0 1013.2 - 0.0 - - 10 - - - -
01/03:30am 18.7 CALM 0 0 1013.1 - 0.0 - - 10 - - - -
01/03:00am 19.0 CALM 0 1 1013.0 - 0.0 - - 10 - - - -
01/02:30am 19.2 SSE 1 1 1013.1 - 0.0 - - 10 - - - -
01/02:00am 19.7 CALM 0 0 1013.1 - 0.0 - - 10 - - - -
01/01:30am 19.8 CALM 0 0 1013.3 - 0.0 - - 10 - - - -
01/01:00am 20.9 E 1 2 1013.5 - 0.0 - - 10 - - - -
01/12:30am 21.5 ESE 1 1 1013.7 - 0.0 - - 10 - - - -
01/12:00am 21.9 SE 2 3 1013.7 - 0.0 - - 10 - - - -
 
Date/Time
EST
Temp

°C
Wind Pressure Rain
since 9am
mm
Weather Cloud Vis
km
Sea
Height
m
Swell
Dir
 
Speed
knots
Gust
knots
hPa Trend Height
m
Period
s
Dir
31/11:30pm 22.7 E 3 4 1013.9 - 0.0 - - 10 - - - -
31/11:00pm 23.2 ESE 5 7 1013.8 - 0.0 - - 10 - - - -
31/10:30pm 23.8 E 6 8 1013.7 - 0.0 - - 10 - - - -
31/10:00pm 24.4 E 7 12 1013.7 - 0.0 - - 10 - - - -
31/09:30pm 25.1 E 6 10 1013.4 - 0.0 - - 10 - - - -
31/09:00pm 25.1 E 5 8 1012.8 - 0.0 - - 10 - - - -
31/08:30pm 24.5 ENE 3 4 1012.4 - 0.0 - - 10 - - - -
31/08:00pm 24.3 ENE 1 3 1011.9 - 0.0 - - 10 - - - -
31/07:30pm 24.9 NNW 1 3 1011.2 - 0.0 - - 10 - - - -
31/07:00pm 25.6 N 2 3 1010.7 - 0.0 - - 10 - - - -
31/06:30pm 26.1 W 2 4 1010.3 - 0.0 - - 10 - - - -
31/06:00pm 27.1 W 4 8 1009.9 - 0.0 - - 10 - - - -
31/05:30pm 28.2 W 6 10 1009.7 - 0.0 - Partly cloudy 10 - - - -
31/05:00pm 29.0 W 6 10 1009.6 - 0.0 - Partly cloudy 10 - - - -
31/04:30pm 30.0 W 6 10 1009.4 - 0.0 - Partly cloudy 10 - - - -
31/04:00pm 30.1 W 8 13 1009.3 - 0.0 - Partly cloudy 10 - - - -
31/03:30pm 31.8 SSE 5 12 1009.2 - 0.0 - Partly cloudy 10 - - - -
31/03:00pm 32.3 SSE 6 11 1009.4 F 0.0 Smoke Partly cloudy 35 - - - -
31/02:30pm 32.1 ESE 9 14 1009.9 - 0.0 - Partly cloudy 10 - - - -
31/02:00pm 31.3 SSE 6 11 1010.4 - 0.0 - - 10 - - - -
31/01:30pm 31.8 E 12 16 1011.0 - 0.0 - Partly cloudy 10 - - - -
31/01:00pm 30.7 SE 9 18 1011.5 - 0.0 - - 10 - - - -
31/12:30pm 29.9 ESE 6 10 1012.1 - 0.0 - - 10 - - - -
31/12:00pm 29.5 ESE 9 17 1012.6 F 0.0 Fine Partly cloudy 30 - - - -
31/11:30am 28.9 SE 7 12 1013.2 - 0.0 - - 10 - - - -
31/11:00am 28.5 ESE 9 14 1013.8 - 0.0 - Mostly clear 10 - - - -
31/10:30am 26.8 ESE 9 14 1014.4 - 0.0 - - 10 - - - -
31/10:00am 26.4 SE 11 15 1014.8 - 0.0 - - 10 - - - -
31/09:30am 25.4 SE 10 14 1014.9 - 0.0 - - 10 - - - -
31/09:00am 24.1 SE 9 13 1015.1 R 0.0 Haze Mostly clear 20 - - - -
31/08:30am 22.3 SE 5 9 1015.0 - 0.0 - - 10 - - - -
31/08:00am 21.3 SE 4 6 1014.8 - 0.0 - - 10 - - - -
31/07:30am 19.7 S 4 7 1014.6 - 0.0 - - 10 - - - -
31/07:00am 18.5 SSE 3 5 1014.4 - 0.0 - - 10 - - - -
31/06:30am 18.6 SSE 3 4 1014.0 - 0.0 - - 10 - - - -
31/06:00am 18.8 SSE 3 5 1013.4 S 0.0 Fine Mostly clear 25 - - - -
31/05:30am 18.4 S 4 5 1013.4 - 0.0 - - 10 - - - -
31/05:00am 18.2 S 3 4 1013.2 - 0.0 - - 10 - - - -
31/04:30am 18.2 SSE 1 3 1012.9 - 0.0 - - 10 - - - -
31/04:00am 18.4 CALM 0 0 1013.1 - 0.0 - - 10 - - - -
31/03:30am 18.8 SSE 1 2 1012.9 - 0.0 - - 10 - - - -
31/03:00am 19.3 SSE 1 2 1012.9 - 0.0 - - 10 - - - -
31/02:30am 20.0 ESE 1 2 1013.0 - 0.0 - - 10 - - - -
31/02:00am 20.6 ESE 2 3 1013.3 - 0.0 - - 10 - - - -
31/01:30am 21.2 E 3 4 1013.5 - 0.0 - - 10 - - - -
31/01:00am 21.6 E 3 4 1013.9 - 0.0 - - 10 - - - -
31/12:30am 21.9 E 5 10 1014.3 - 0.0 - - 10 - - - -
31/12:00am 22.3 E 6 10 1014.5 - 0.0 - - 10 - - - -
 
Date/Time
EST
Temp

°C
Wind Pressure Rain
since 9am
mm
Weather Cloud Vis
km
Sea
Height
m
Swell
Dir
 
Speed
knots
Gust
knots
hPa Trend Height
m
Period
s
Dir
30/11:30pm 22.6 E 7 10 1014.6 - 0.0 - - 10 - - - -
30/11:00pm 23.1 E 9 15 1014.5 - 0.0 - - 10 - - - -
30/10:30pm 23.4 E 8 12 1014.6 - 0.0 - Partly cloudy 10 - - - -
30/10:00pm 23.9 E 7 11 1014.5 - 0.0 - - 10 - - - -
30/09:30pm 24.5 E 9 14 1014.2 - 0.0 - Partly cloudy 10 - - - -
30/09:00pm 25.1 E 11 16 1014.0 - 0.0 - - 10 - - - -
30/08:30pm 25.8 E 8 12 1013.7 - 0.0 - Cloudy 10 - - - -
30/08:00pm 26.6 E 8 12 1013.1 - 0.0 - Cloudy 10 - - - -
30/07:30pm 27.3 E 7 12 1012.5 - 0.0 - Cloudy 10 - - - -
30/07:00pm 25.9 WSW 2 5 1012.1 - 0.0 - Cloudy 10 - - - -
30/06:30pm 26.7 W 1 3 1011.6 - 0.0 - Cloudy 10 - - - -
30/06:00pm 29.4 SE 6 9 1011.1 - 0.0 - Cloudy 10 - - - -
30/05:30pm 30.0 ESE 9 12 1011.0 - 0.0 - Cloudy 10 - - - -
30/05:00pm 29.8 SE 7 10 1010.7 - 0.0 - Cloudy 10 - - - -
30/04:30pm 29.9 ESE 7 12 1010.7 - 0.0 - Cloudy 10 - - - -
30/04:00pm 30.7 E 5 9 1010.6 - 0.0 - Partly cloudy 10 - - - -
30/03:30pm 29.7 ESE 7 11 1011.0 - 0.0 - Partly cloudy 10 - - - -
30/03:00pm 29.9 ESE 6 14 1011.1 F 0.0 Haze Mostly cloudy 15 - - - -
30/02:30pm 30.7 E 8 14 1011.8 - 0.0 - Partly cloudy 10 - - - -
30/02:00pm 29.6 SE 8 14 1012.2 - 0.0 - - 10 - - - -
30/01:30pm 29.9 SE 12 16 1012.5 - 0.0 - - 10 - - - -
30/01:00pm 28.9 ESE 11 15 1013.0 - 0.0 - - 10 - - - -
30/12:30pm 29.0 ESE 10 15 1013.5 - 0.0 - - 10 - - - -
30/12:00pm 28.2 ESE 10 16 1013.9 - 0.0 - - 10 - - - -
30/11:30am 28.1 ESE 9 12 1014.3 - 0.0 - - 10 - - - -
30/11:00am 27.7 ESE 11 17 1015.0 - 0.0 - - 10 - - - -
30/10:30am 26.8 E 10 14 1015.4 - 0.0 - Partly cloudy 10 - - - -

Other Formats:

Comma delimited format used in spreadsheet applications
http://www.bom.gov.au/fwo/IDQ60701/IDQ60701.94170.axf

JavaScript Object Notation format (JSON) in row-major order
http://www.bom.gov.au/fwo/IDQ60701/IDQ60701.94170.json